Time;durP1;ratioP1;P1;durP2;ratioP2;P2;SDS_P1;SDS_P2;PMS_P1;PMS_P2;Temp;Humidity;BMP_temperature;BMP_pressure;BME280_temperature;BME280_humidity;BME280_pressure;Samples;Min_cycle;Max_cycle;Signal;HPM_P1;HPM_P2
2021/10/03 00:02:25;;;;;;;10.05;5.45;;;;;;;;;;5036214;28;20541;-73
2021/10/03 00:04:53;;;;;;;10.95;5.50;;;;;;;;;;5036371;28;20559;-73
2021/10/03 00:07:23;;;;;;;13.68;6.50;;;;;;;;;;5037005;28;20037;-73
2021/10/03 00:09:50;;;;;;;7.80;5.85;;;;;;;;;;5039087;28;20036;-73
2021/10/03 00:12:17;;;;;;;9.30;5.68;;;;;;;;;;5035478;28;20033;-73
2021/10/03 00:14:44;;;;;;;10.02;5.85;;;;;;;;;;5038541;28;20032;-74
2021/10/03 00:17:10;;;;;;;10.55;6.53;;;;;;;;;;5034354;28;20025;-73
2021/10/03 00:19:37;;;;;;;14.60;6.53;;;;;;;;;;5036978;28;20049;-73
2021/10/03 00:22:03;;;;;;;8.57;5.97;;;;;;;;;;5036477;28;20477;-73
2021/10/03 00:24:30;;;;;;;14.38;6.28;;;;;;;;;;5033960;28;20029;-74
2021/10/03 00:26:57;;;;;;;9.98;6.70;;;;;;;;;;5038718;28;20059;-73
2021/10/03 00:29:23;;;;;;;9.90;6.80;;;;;;;;;;5035562;28;20044;-74
2021/10/03 00:31:50;;;;;;;12.07;6.60;;;;;;;;;;5037685;28;20595;-73
2021/10/03 00:34:16;;;;;;;13.30;6.85;;;;;;;;;;5035836;28;20033;-73
2021/10/03 00:36:42;;;;;;;8.60;6.53;;;;;;;;;;5037216;28;20025;-73
2021/10/03 00:39:08;;;;;;;12.32;6.82;;;;;;;;;;5038462;28;20092;-73
2021/10/03 00:41:34;;;;;;;11.25;6.38;;;;;;;;;;5033136;28;20056;-74
2021/10/03 00:44:01;;;;;;;10.60;6.30;;;;;;;;;;5032891;28;20025;-73
2021/10/03 00:46:27;;;;;;;10.48;6.38;;;;;;;;;;5037357;28;20037;-73
2021/10/03 00:48:53;;;;;;;10.88;6.50;;;;;;;;;;5036672;28;20688;-74
2021/10/03 00:51:20;;;;;;;11.07;6.20;;;;;;;;;;5036124;28;20025;-74
2021/10/03 00:53:46;;;;;;;10.13;6.57;;;;;;;;;;5036585;28;20044;-74
2021/10/03 00:56:15;;;;;;;13.00;6.07;;;;;;;;;;5034616;28;20581;-73
2021/10/03 00:58:42;;;;;;;11.20;6.15;;;;;;;;;;5037674;28;20489;-73
2021/10/03 01:01:08;;;;;;;9.98;6.07;;;;;;;;;;5034853;28;20034;-73
2021/10/03 01:03:35;;;;;;;11.32;6.85;;;;;;;;;;5035996;28;20029;-74
2021/10/03 01:06:02;;;;;;;14.85;6.65;;;;;;;;;;5038903;28;20124;-73
2021/10/03 01:08:28;;;;;;;10.52;5.90;;;;;;;;;;5035388;28;20021;-74
2021/10/03 01:10:54;;;;;;;12.45;6.55;;;;;;;;;;5037991;28;20516;-73
2021/10/03 01:13:23;;;;;;;11.20;6.13;;;;;;;;;;5035671;28;20018;-73
2021/10/03 01:15:51;;;;;;;10.48;6.45;;;;;;;;;;5034760;28;20025;-73
2021/10/03 01:18:17;;;;;;;10.55;6.30;;;;;;;;;;5037393;28;20381;-74
2021/10/03 01:20:44;;;;;;;7.60;5.75;;;;;;;;;;5034499;28;20494;-74
2021/10/03 01:23:10;;;;;;;11.88;6.15;;;;;;;;;;5039090;28;20101;-73
2021/10/03 01:25:38;;;;;;;12.98;5.90;;;;;;;;;;5033987;28;20044;-74
2021/10/03 01:28:04;;;;;;;8.10;6.28;;;;;;;;;;5032791;28;20029;-74
2021/10/03 01:30:31;;;;;;;8.25;6.32;;;;;;;;;;5033827;28;20029;-73
2021/10/03 01:32:57;;;;;;;9.80;6.88;;;;;;;;;;5030243;28;20485;-74
2021/10/03 01:35:23;;;;;;;12.20;6.60;;;;;;;;;;5031674;28;20117;-73
2021/10/03 01:37:50;;;;;;;13.52;6.88;;;;;;;;;;5030125;28;20026;-74
2021/10/03 01:40:16;;;;;;;14.40;6.85;;;;;;;;;;5031834;28;20427;-74
2021/10/03 01:42:43;;;;;;;9.32;5.97;;;;;;;;;;5033643;28;20045;-74
2021/10/03 01:45:11;;;;;;;9.88;6.22;;;;;;;;;;5029498;28;20382;-73
2021/10/03 01:47:57;;;;;;;9.13;6.10;;;;;;;;;;5015320;28;20534;-73
2021/10/03 01:50:23;;;;;;;8.68;5.53;;;;;;;;;;5032254;28;20074;-73
2021/10/03 01:52:49;;;;;;;12.05;5.75;;;;;;;;;;5029639;28;20087;-74
2021/10/03 01:55:18;;;;;;;11.27;6.63;;;;;;;;;;5031195;28;20038;-74
2021/10/03 01:57:44;;;;;;;11.00;6.35;;;;;;;;;;5034664;28;20365;-74
2021/10/03 02:00:11;;;;;;;8.70;6.50;;;;;;;;;;5031608;28;20575;-73
2021/10/03 02:02:37;;;;;;;13.15;6.13;;;;;;;;;;5028815;28;20025;-74
2021/10/03 02:05:04;;;;;;;11.65;6.45;;;;;;;;;;5032302;28;20029;-74
2021/10/03 02:07:30;;;;;;;10.07;6.68;;;;;;;;;;5029286;28;20041;-74
2021/10/03 02:09:57;;;;;;;8.75;5.53;;;;;;;;;;5036580;28;20036;-74
2021/10/03 02:12:24;;;;;;;16.13;5.95;;;;;;;;;;5032326;28;20040;-73
2021/10/03 02:14:50;;;;;;;9.35;5.90;;;;;;;;;;5034036;28;20043;-74
2021/10/03 02:17:16;;;;;;;7.50;5.70;;;;;;;;;;5034940;28;20036;-74
2021/10/03 02:19:42;;;;;;;10.48;5.60;;;;;;;;;;5033994;28;20029;-73
2021/10/03 02:22:09;;;;;;;7.90;5.60;;;;;;;;;;5034274;28;20104;-74
2021/10/03 02:24:36;;;;;;;11.68;5.60;;;;;;;;;;5035689;28;20029;-74
2021/10/03 02:27:02;;;;;;;10.02;6.13;;;;;;;;;;5033532;28;20044;-74
2021/10/03 02:29:28;;;;;;;7.65;5.53;;;;;;;;;;5033990;28;20086;-74
2021/10/03 02:31:55;;;;;;;11.10;5.93;;;;;;;;;;5035044;28;20029;-73
2021/10/03 02:34:21;;;;;;;13.50;5.80;;;;;;;;;;5032874;28;20091;-72
2021/10/03 02:36:48;;;;;;;12.82;5.63;;;;;;;;;;5034467;28;20017;-72
2021/10/03 02:39:14;;;;;;;11.93;6.05;;;;;;;;;;5032891;28;20025;-72
2021/10/03 02:41:40;;;;;;;7.70;5.60;;;;;;;;;;5034280;28;20057;-72
2021/10/03 02:44:08;;;;;;;9.13;5.40;;;;;;;;;;5032755;28;20171;-72
2021/10/03 02:46:34;;;;;;;13.15;5.32;;;;;;;;;;5033032;28;20041;-72
2021/10/03 02:49:00;;;;;;;15.65;6.03;;;;;;;;;;5035677;28;20032;-72
2021/10/03 02:51:27;;;;;;;9.35;5.35;;;;;;;;;;5032299;28;20489;-72
2021/10/03 02:53:55;;;;;;;7.63;5.55;;;;;;;;;;5033838;28;20482;-73
2021/10/03 02:56:22;;;;;;;8.60;5.70;;;;;;;;;;5033663;28;20028;-72
2021/10/03 02:58:48;;;;;;;12.43;5.85;;;;;;;;;;5034345;28;20029;-73
2021/10/03 03:01:16;;;;;;;11.27;5.47;;;;;;;;;;5032613;28;20041;-72
2021/10/03 03:03:42;;;;;;;7.90;5.63;;;;;;;;;;5030614;28;20207;-72
2021/10/03 03:06:09;;;;;;;10.15;5.32;;;;;;;;;;5032605;28;20048;-72
2021/10/03 03:08:35;;;;;;;10.13;5.85;;;;;;;;;;5030531;28;20026;-72
2021/10/03 03:11:01;;;;;;;7.90;5.68;;;;;;;;;;5029394;28;20162;-73
2021/10/03 03:13:28;;;;;;;9.23;5.93;;;;;;;;;;5036026;28;20582;-72
2021/10/03 03:15:54;;;;;;;8.45;5.65;;;;;;;;;;5029811;28;20049;-72
2021/10/03 03:18:21;;;;;;;9.88;5.75;;;;;;;;;;5027637;28;20021;-72
2021/10/03 03:20:47;;;;;;;9.00;5.40;;;;;;;;;;5033063;28;20512;-72
2021/10/03 03:23:13;;;;;;;8.57;5.90;;;;;;;;;;5030822;28;20037;-72
2021/10/03 03:25:39;;;;;;;7.78;5.53;;;;;;;;;;5031406;28;20033;-72
2021/10/03 03:28:07;;;;;;;11.90;5.40;;;;;;;;;;5028693;28;20047;-72
2021/10/03 03:30:33;;;;;;;9.52;5.63;;;;;;;;;;5032402;28;20017;-72
2021/10/03 03:32:59;;;;;;;11.40;5.65;;;;;;;;;;5029109;28;20061;-72
2021/10/03 03:35:26;;;;;;;7.78;5.32;;;;;;;;;;5031740;28;20501;-72
2021/10/03 03:37:52;;;;;;;7.68;5.78;;;;;;;;;;5031855;28;20140;-72
2021/10/03 03:40:19;;;;;;;11.15;5.55;;;;;;;;;;5029350;28;20036;-72
2021/10/03 03:42:46;;;;;;;13.85;5.72;;;;;;;;;;5029346;28;20674;-72
2021/10/03 03:45:12;;;;;;;10.68;5.82;;;;;;;;;;5032289;28;20029;-72
2021/10/03 03:47:39;;;;;;;11.52;5.85;;;;;;;;;;5033302;28;20495;-72
2021/10/03 03:50:08;;;;;;;22.85;6.03;;;;;;;;;;5013274;28;20477;-72
2021/10/03 03:52:34;;;;;;;12.38;5.93;;;;;;;;;;5034161;28;20099;-72
2021/10/03 03:55:00;;;;;;;10.80;5.70;;;;;;;;;;5032354;28;20041;-72
2021/10/03 03:57:26;;;;;;;6.80;5.95;;;;;;;;;;5032167;28;20028;-72
2021/10/03 03:59:52;;;;;;;10.32;5.93;;;;;;;;;;5031007;28;20018;-72
2021/10/03 04:02:18;;;;;;;8.75;5.60;;;;;;;;;;5034527;28;20509;-72
2021/10/03 04:04:46;;;;;;;8.52;5.93;;;;;;;;;;5035558;28;20029;-72
2021/10/03 04:07:12;;;;;;;8.18;5.82;;;;;;;;;;5030955;28;20124;-72
2021/10/03 04:09:38;;;;;;;11.30;6.20;;;;;;;;;;5031574;28;20029;-72
2021/10/03 04:12:04;;;;;;;9.80;5.25;;;;;;;;;;5034391;28;20996;-72
2021/10/03 04:14:30;;;;;;;16.38;5.60;;;;;;;;;;5030976;28;20414;-72
2021/10/03 04:16:57;;;;;;;7.30;5.55;;;;;;;;;;5032143;28;20603;-72
2021/10/03 04:19:23;;;;;;;9.13;5.28;;;;;;;;;;5031640;28;20030;-72
2021/10/03 04:21:49;;;;;;;11.13;5.55;;;;;;;;;;5032793;28;20028;-72
2021/10/03 04:24:15;;;;;;;6.13;5.22;;;;;;;;;;5032691;28;20044;-72
2021/10/03 04:26:41;;;;;;;10.80;5.18;;;;;;;;;;5030850;28;20033;-72
2021/10/03 04:29:07;;;;;;;11.10;5.50;;;;;;;;;;5028618;28;20026;-72
2021/10/03 04:31:34;;;;;;;8.45;5.13;;;;;;;;;;5033010;28;20033;-72
2021/10/03 04:34:01;;;;;;;8.55;5.53;;;;;;;;;;5031389;28;20075;-72
2021/10/03 04:36:27;;;;;;;12.48;5.35;;;;;;;;;;5031911;28;20087;-72
2021/10/03 04:38:53;;;;;;;8.88;5.05;;;;;;;;;;5013422;28;20033;-72
2021/10/03 04:41:19;;;;;;;10.50;5.00;;;;;;;;;;5029780;28;20513;-72
2021/10/03 04:43:45;;;;;;;8.27;5.43;;;;;;;;;;5031315;28;20515;-72
2021/10/03 04:46:12;;;;;;;6.97;5.53;;;;;;;;;;5027821;28;20044;-72
2021/10/03 04:48:38;;;;;;;11.70;5.28;;;;;;;;;;5026109;28;20539;-72
2021/10/03 04:51:05;;;;;;;11.48;5.05;;;;;;;;;;5029572;28;20156;-72
2021/10/03 04:53:31;;;;;;;8.82;4.72;;;;;;;;;;5029575;28;20040;-72
2021/10/03 04:55:57;;;;;;;5.55;4.53;;;;;;;;;;5029030;28;20029;-72
2021/10/03 04:58:23;;;;;;;7.72;4.78;;;;;;;;;;5027800;28;20038;-72
2021/10/03 05:00:51;;;;;;;9.10;4.97;;;;;;;;;;5031165;28;20442;-72
2021/10/03 05:03:18;;;;;;;10.15;4.85;;;;;;;;;;5032156;28;20029;-72
2021/10/03 05:05:44;;;;;;;8.95;4.68;;;;;;;;;;5028918;28;20060;-72
2021/10/03 05:08:12;;;;;;;9.35;4.68;;;;;;;;;;5028266;28;20029;-72
2021/10/03 05:10:41;;;;;;;7.82;5.47;;;;;;;;;;5026387;28;20029;-72
2021/10/03 05:13:07;;;;;;;7.25;5.07;;;;;;;;;;5028803;28;20032;-72
2021/10/03 05:15:33;;;;;;;9.93;5.00;;;;;;;;;;5028543;28;20042;-72
2021/10/03 05:18:00;;;;;;;9.48;4.90;;;;;;;;;;5029340;28;20095;-71
2021/10/03 05:20:26;;;;;;;8.48;5.40;;;;;;;;;;5029903;28;20843;-72
2021/10/03 05:22:52;;;;;;;8.27;5.10;;;;;;;;;;5026812;28;20028;-72
2021/10/03 05:25:18;;;;;;;7.75;4.75;;;;;;;;;;5027530;28;20033;-71
2021/10/03 05:27:44;;;;;;;7.03;5.47;;;;;;;;;;5030690;28;20029;-72
2021/10/03 05:30:11;;;;;;;6.55;4.80;;;;;;;;;;5028149;28;20075;-72
2021/10/03 05:32:37;;;;;;;8.43;5.25;;;;;;;;;;5029142;28;20036;-72
2021/10/03 05:35:03;;;;;;;7.15;5.57;;;;;;;;;;5030282;28;20055;-72
2021/10/03 05:37:29;;;;;;;6.28;4.65;;;;;;;;;;5028946;28;20122;-72
2021/10/03 05:39:55;;;;;;;6.65;4.68;;;;;;;;;;5027277;28;20027;-73
2021/10/03 05:42:22;;;;;;;6.93;4.82;;;;;;;;;;5012953;28;20056;-72
2021/10/03 05:44:48;;;;;;;6.20;4.78;;;;;;;;;;5030353;28;20104;-72
2021/10/03 05:47:14;;;;;;;7.03;4.82;;;;;;;;;;5032809;28;20041;-72
2021/10/03 05:49:41;;;;;;;10.68;5.00;;;;;;;;;;5033012;28;20519;-72
2021/10/03 05:52:07;;;;;;;8.02;5.63;;;;;;;;;;5029815;28;20493;-72
2021/10/03 05:54:33;;;;;;;9.15;5.55;;;;;;;;;;5028935;28;20030;-72
2021/10/03 05:56:59;;;;;;;6.90;4.90;;;;;;;;;;5027665;28;20036;-72
2021/10/03 05:59:25;;;;;;;8.15;5.43;;;;;;;;;;5024992;28;20029;-72
2021/10/03 06:01:52;;;;;;;9.85;5.20;;;;;;;;;;5032516;28;20677;-72
2021/10/03 06:04:18;;;;;;;9.80;5.75;;;;;;;;;;5028170;28;20497;-72
2021/10/03 06:06:44;;;;;;;10.60;5.88;;;;;;;;;;5021856;28;20034;-72
2021/10/03 06:09:10;;;;;;;8.40;5.65;;;;;;;;;;5030590;28;20026;-72
2021/10/03 06:11:37;;;;;;;8.25;5.97;;;;;;;;;;5028786;28;20043;-73
2021/10/03 06:14:04;;;;;;;14.13;6.07;;;;;;;;;;5027061;28;20051;-72
2021/10/03 06:16:30;;;;;;;7.70;5.63;;;;;;;;;;5032040;28;20022;-72
2021/10/03 06:18:56;;;;;;;7.18;5.18;;;;;;;;;;5030035;28;20698;-72
2021/10/03 06:21:25;;;;;;;8.23;5.22;;;;;;;;;;5024421;28;20041;-72
2021/10/03 06:23:51;;;;;;;7.05;5.68;;;;;;;;;;5033631;28;20031;-73
2021/10/03 06:26:18;;;;;;;8.50;5.75;;;;;;;;;;5026919;28;20052;-72
2021/10/03 06:28:44;;;;;;;14.02;5.78;;;;;;;;;;5025117;28;20087;-72
2021/10/03 06:31:11;;;;;;;10.60;6.25;;;;;;;;;;5023956;28;20036;-72
2021/10/03 06:33:38;;;;;;;9.23;5.85;;;;;;;;;;5027576;28;20695;-72
2021/10/03 06:36:06;;;;;;;7.50;5.90;;;;;;;;;;5024806;28;20108;-72
2021/10/03 06:38:32;;;;;;;7.90;5.82;;;;;;;;;;5012526;28;20674;-72
2021/10/03 06:40:58;;;;;;;8.57;5.90;;;;;;;;;;5029852;28;20076;-73
2021/10/03 06:43:24;;;;;;;11.13;5.70;;;;;;;;;;5030005;28;20033;-73
2021/10/03 06:45:51;;;;;;;6.15;5.13;;;;;;;;;;5028408;28;20026;-72
2021/10/03 06:48:17;;;;;;;8.35;5.43;;;;;;;;;;5033253;28;20041;-72
2021/10/03 06:50:43;;;;;;;9.85;5.07;;;;;;;;;;5026421;28;20026;-72
2021/10/03 06:53:09;;;;;;;8.50;5.28;;;;;;;;;;5022211;28;20116;-72
2021/10/03 06:55:35;;;;;;;6.80;5.05;;;;;;;;;;5030592;28;20038;-72
2021/10/03 06:58:03;;;;;;;7.28;5.55;;;;;;;;;;5027867;28;20655;-72
2021/10/03 07:00:29;;;;;;;9.18;5.15;;;;;;;;;;5023515;28;20033;-72
2021/10/03 07:02:55;;;;;;;7.28;5.70;;;;;;;;;;5031859;28;20032;-72
2021/10/03 07:05:22;;;;;;;8.38;5.10;;;;;;;;;;5026136;28;20022;-72
2021/10/03 07:07:48;;;;;;;6.35;5.07;;;;;;;;;;5025208;28;20037;-72
2021/10/03 07:10:14;;;;;;;8.50;6.15;;;;;;;;;;5026436;28;20029;-72
2021/10/03 07:12:41;;;;;;;11.05;6.55;;;;;;;;;;5029800;28;20036;-72
2021/10/03 07:15:08;;;;;;;8.75;6.10;;;;;;;;;;5012026;28;20029;-72
2021/10/03 07:17:34;;;;;;;7.50;6.00;;;;;;;;;;5020462;28;20042;-72
2021/10/03 07:20:00;;;;;;;7.90;5.05;;;;;;;;;;5030328;28;20036;-72
2021/10/03 07:22:26;;;;;;;5.38;4.75;;;;;;;;;;5025651;28;20079;-72
2021/10/03 07:24:52;;;;;;;6.03;4.70;;;;;;;;;;5033270;28;20043;-72
2021/10/03 07:27:18;;;;;;;5.80;4.82;;;;;;;;;;5027041;28;20042;-72
2021/10/03 07:29:44;;;;;;;6.15;4.63;;;;;;;;;;5029821;28;20025;-75
2021/10/03 07:32:11;;;;;;;5.65;5.03;;;;;;;;;;5010620;28;20101;-74
2021/10/03 07:34:37;;;;;;;5.32;4.00;;;;;;;;;;5027585;28;20049;-72
2021/10/03 07:37:04;;;;;;;5.28;4.65;;;;;;;;;;5028394;28;20405;-70
2021/10/03 07:39:30;;;;;;;5.32;4.45;;;;;;;;;;5032794;28;20025;-71
2021/10/03 07:41:56;;;;;;;7.43;4.20;;;;;;;;;;5034172;28;20136;-69
2021/10/03 07:44:24;;;;;;;4.85;4.38;;;;;;;;;;5035124;28;20025;-69
2021/10/03 07:46:51;;;;;;;5.03;4.22;;;;;;;;;;5033025;28;20120;-71
2021/10/03 07:49:17;;;;;;;4.85;3.80;;;;;;;;;;5032930;28;20692;-69
2021/10/03 07:51:43;;;;;;;6.43;5.65;;;;;;;;;;5035040;28;20029;-69
2021/10/03 07:54:09;;;;;;;8.68;6.35;;;;;;;;;;5009675;28;20022;-69
2021/10/03 07:56:36;;;;;;;6.18;4.85;;;;;;;;;;5034131;28;20044;-70
2021/10/03 07:59:02;;;;;;;5.72;5.13;;;;;;;;;;5030235;28;20412;-69
2021/10/03 08:01:28;;;;;;;5.80;5.20;;;;;;;;;;5032860;28;20028;-70
2021/10/03 08:03:58;;;;;;;6.72;4.88;;;;;;;;;;5032989;28;20017;-70
2021/10/03 08:06:27;;;;;;;7.97;4.85;;;;;;;;;;5030622;28;20038;-70
2021/10/03 08:08:54;;;;;;;6.00;4.68;;;;;;;;;;5033369;28;20036;-70
2021/10/03 08:11:20;;;;;;;6.55;4.95;;;;;;;;;;5034973;28;20023;-71
2021/10/03 08:13:46;;;;;;;5.55;5.05;;;;;;;;;;5034820;28;20827;-70
2021/10/03 08:16:12;;;;;;;8.88;4.70;;;;;;;;;;5025879;28;20030;-71
2021/10/03 08:18:38;;;;;;;4.93;4.43;;;;;;;;;;5014840;28;20048;-71
2021/10/03 08:21:05;;;;;;;7.22;4.32;;;;;;;;;;5033006;28;20043;-71
2021/10/03 08:23:31;;;;;;;6.88;4.22;;;;;;;;;;5018130;28;20044;-71
2021/10/03 08:25:57;;;;;;;5.85;4.68;;;;;;;;;;5034103;28;20048;-70
2021/10/03 08:28:23;;;;;;;5.57;4.68;;;;;;;;;;5030518;28;20067;-70
2021/10/03 08:30:49;;;;;;;6.45;4.45;;;;;;;;;;5022995;28;20044;-71
2021/10/03 08:33:16;;;;;;;4.63;4.22;;;;;;;;;;5022960;28;20725;-70
2021/10/03 08:35:42;;;;;;;4.72;4.05;;;;;;;;;;5038222;28;20032;-72
2021/10/03 08:38:09;;;;;;;4.65;4.13;;;;;;;;;;5028714;28;20029;-71
2021/10/03 08:40:35;;;;;;;5.88;3.58;;;;;;;;;;5030021;28;20025;-70
2021/10/03 08:43:03;;;;;;;5.20;4.15;;;;;;;;;;5029228;28;20053;-70
2021/10/03 08:45:29;;;;;;;5.35;3.92;;;;;;;;;;5027677;28;20025;-73
2021/10/03 08:47:55;;;;;;;7.30;4.43;;;;;;;;;;5029030;28;20367;-71
2021/10/03 08:50:22;;;;;;;6.15;3.70;;;;;;;;;;5028696;28;20416;-70
2021/10/03 08:52:48;;;;;;;5.32;3.92;;;;;;;;;;5033145;28;20100;-71
2021/10/03 08:55:15;;;;;;;5.63;3.80;;;;;;;;;;5033792;28;21763;-75
2021/10/03 08:57:41;;;;;;;5.78;3.85;;;;;;;;;;5026063;28;20034;-70
2021/10/03 09:00:12;;;;;;;4.07;3.63;;;;;;;;;;5034582;28;20025;-71
2021/10/03 09:02:56;;;;;;;4.53;4.00;;;;;;;;;;5024555;28;20075;-70
2021/10/03 09:05:23;;;;;;;8.50;3.53;;;;;;;;;;5026757;28;20049;-71
2021/10/03 09:07:58;;;;;;;5.40;3.58;;;;;;;;;;5028930;28;20032;-70
2021/10/03 09:10:24;;;;;;;3.35;2.90;;;;;;;;;;5027908;28;20029;-73
2021/10/03 09:12:50;;;;;;;5.05;3.55;;;;;;;;;;5029460;28;20036;-70
2021/10/03 09:15:18;;;;;;;4.63;3.38;;;;;;;;;;5026580;28;20029;-70
2021/10/03 09:17:54;;;;;;;6.07;4.03;;;;;;;;;;5035013;28;20372;-70
2021/10/03 09:20:28;;;;;;;4.15;3.67;;;;;;;;;;5040111;28;20040;-70
2021/10/03 09:23:19;;;;;;;5.05;4.28;;;;;;;;;;5027857;28;20029;-76
2021/10/03 09:25:47;;;;;;;5.25;4.75;;;;;;;;;;5029568;28;20060;-73
2021/10/03 09:28:26;;;;;;;5.57;5.00;;;;;;;;;;5034607;28;20578;-71
2021/10/03 09:31:06;;;;;;;5.70;4.97;;;;;;;;;;5031765;28;20021;-74
2021/10/03 09:33:43;;;;;;;8.60;5.65;;;;;;;;;;5038257;28;20040;-71
2021/10/03 09:36:09;;;;;;;8.80;6.38;;;;;;;;;;5034914;28;20021;-70
2021/10/03 09:38:43;;;;;;;11.35;6.18;;;;;;;;;;5026764;28;20489;-70
2021/10/03 09:41:10;;;;;;;8.50;5.35;;;;;;;;;;5037666;28;20036;-73
2021/10/03 09:43:45;;;;;;;9.27;5.38;;;;;;;;;;5014051;28;20041;-70
2021/10/03 09:46:32;;;;;;;10.63;6.05;;;;;;;;;;5034685;28;20401;-72
2021/10/03 09:48:58;;;;;;;190.55;82.72;;;;;;;;;;5036356;28;20022;-70
2021/10/03 09:51:25;;;;;;;88.28;56.17;;;;;;;;;;5036063;28;20025;-71
2021/10/03 09:53:51;;;;;;;47.83;30.38;;;;;;;;;;5037057;28;20027;-70
2021/10/03 09:56:18;;;;;;;28.60;19.27;;;;;;;;;;5033575;28;20033;-72
2021/10/03 09:58:46;;;;;;;12.73;8.95;;;;;;;;;;5032158;28;20036;-73
2021/10/03 10:01:13;;;;;;;19.15;13.80;;;;;;;;;;5019245;28;20094;-72
2021/10/03 10:03:39;;;;;;;19.45;13.88;;;;;;;;;;5037340;28;20033;-73
2021/10/03 10:06:06;;;;;;;10.60;8.23;;;;;;;;;;5032950;28;20064;-74
2021/10/03 10:08:33;;;;;;;8.32;5.97;;;;;;;;;;5035401;28;20026;-74
2021/10/03 10:11:09;;;;;;;5.55;5.00;;;;;;;;;;5035038;28;20477;-73
2021/10/03 10:13:36;;;;;;;6.00;5.00;;;;;;;;;;5032997;28;20025;-73
2021/10/03 10:16:44;;;;;;;5.45;4.40;;;;;;;;;;5034106;28;20021;-73
2021/10/03 10:19:26;;;;;;;7.53;5.82;;;;;;;;;;4942148;29;20396;-72
2021/10/03 10:22:11;;;;;;;6.95;4.68;;;;;;;;;;4938440;29;20211;-74
2021/10/03 10:24:57;;;;;;;5.63;4.60;;;;;;;;;;5007323;28;20175;-74
2021/10/03 10:27:29;;;;;;;4.85;4.18;;;;;;;;;;5011260;28;20681;-73
2021/10/03 10:30:01;;;;;;;5.53;4.18;;;;;;;;;;5028198;28;20093;-73
2021/10/03 10:32:29;;;;;;;5.32;4.75;;;;;;;;;;5031629;28;20055;-73
2021/10/03 10:35:07;;;;;;;5.05;4.40;;;;;;;;;;5033547;28;20472;-73
2021/10/03 10:37:53;;;;;;;4.68;4.15;;;;;;;;;;5032420;28;20032;-75
2021/10/03 10:40:22;;;;;;;4.93;4.38;;;;;;;;;;5032877;28;20037;-74
2021/10/03 10:42:49;;;;;;;6.90;4.90;;;;;;;;;;5016378;28;20517;-73
2021/10/03 10:45:27;;;;;;;6.65;4.80;;;;;;;;;;5033004;28;20784;-73
2021/10/03 10:48:06;;;;;;;6.50;4.97;;;;;;;;;;5033024;28;20709;-73
2021/10/03 10:50:32;;;;;;;9.63;4.60;;;;;;;;;;5032888;28;20026;-73
2021/10/03 10:53:17;;;;;;;7.28;4.63;;;;;;;;;;5034170;28;20025;-73
2021/10/03 10:55:59;;;;;;;6.53;4.47;;;;;;;;;;5035140;28;20108;-74
2021/10/03 10:58:26;;;;;;;8.30;4.95;;;;;;;;;;5034471;28;20025;-73
2021/10/03 11:01:00;;;;;;;6.05;4.75;;;;;;;;;;5031531;28;20033;-73
2021/10/03 11:03:45;;;;;;;5.78;4.75;;;;;;;;;;5032598;28;20026;-73
2021/10/03 11:06:31;;;;;;;4.95;4.28;;;;;;;;;;5032131;28;20040;-75
2021/10/03 11:09:00;;;;;;;4.75;3.92;;;;;;;;;;5015240;28;20072;-73
2021/10/03 11:11:27;;;;;;;5.05;4.10;;;;;;;;;;5031989;28;20608;-73
2021/10/03 11:13:54;;;;;;;6.03;4.80;;;;;;;;;;5033943;28;20034;-74
2021/10/03 11:16:20;;;;;;;5.38;4.47;;;;;;;;;;5031956;28;20025;-73
2021/10/03 11:18:50;;;;;;;4.93;4.43;;;;;;;;;;5032847;28;20021;-74
2021/10/03 11:21:19;;;;;;;6.72;4.22;;;;;;;;;;5034912;28;20036;-72
2021/10/03 11:23:47;;;;;;;6.32;4.45;;;;;;;;;;5032192;28;20033;-73
2021/10/03 11:26:14;;;;;;;5.45;4.40;;;;;;;;;;5031993;28;20060;-74
2021/10/03 11:28:53;;;;;;;5.22;4.50;;;;;;;;;;5033845;28;20017;-74
2021/10/03 11:31:38;;;;;;;5.97;4.80;;;;;;;;;;5031856;28;20029;-73
2021/10/03 11:34:05;;;;;;;6.05;4.82;;;;;;;;;;5031480;28;20025;-74
2021/10/03 11:36:32;;;;;;;7.60;4.30;;;;;;;;;;5032914;28;20580;-73
2021/10/03 11:39:00;;;;;;;6.63;4.10;;;;;;;;;;5032477;28;20555;-73
2021/10/03 11:41:29;;;;;;;6.22;4.45;;;;;;;;;;5032148;28;20048;-73
2021/10/03 11:43:55;;;;;;;5.05;4.25;;;;;;;;;;5034632;28;20047;-73
2021/10/03 11:46:21;;;;;;;5.40;4.82;;;;;;;;;;5029925;28;20090;-74
2021/10/03 11:48:51;;;;;;;6.78;5.05;;;;;;;;;;5016406;28;20104;-74
2021/10/03 11:51:17;;;;;;;6.20;5.50;;;;;;;;;;5032527;28;20481;-74
2021/10/03 11:53:51;;;;;;;7.75;5.53;;;;;;;;;;5032105;28;20520;-74
2021/10/03 11:56:19;;;;;;;6.72;5.13;;;;;;;;;;5029721;28;20052;-73
2021/10/03 11:58:46;;;;;;;6.95;5.80;;;;;;;;;;5033319;28;20021;-73
2021/10/03 12:01:12;;;;;;;7.57;5.50;;;;;;;;;;5032893;28;20045;-74
2021/10/03 12:03:49;;;;;;;6.22;5.20;;;;;;;;;;5032071;28;20467;-74
2021/10/03 12:06:28;;;;;;;7.07;5.18;;;;;;;;;;5031199;28;20033;-74
2021/10/03 12:08:54;;;;;;;6.28;5.25;;;;;;;;;;5029800;28;20032;-74
2021/10/03 12:11:21;;;;;;;5.95;5.25;;;;;;;;;;5034170;28;20025;-73
2021/10/03 12:14:16;;;;;;;7.25;5.60;;;;;;;;;;5031126;28;20021;-73
2021/10/03 12:16:50;;;;;;;7.68;5.63;;;;;;;;;;5013178;28;20041;-74
2021/10/03 12:19:16;;;;;;;7.28;6.10;;;;;;;;;;5031254;28;20025;-73
2021/10/03 12:21:42;;;;;;;6.35;5.55;;;;;;;;;;5032169;28;20025;-74
2021/10/03 12:24:09;;;;;;;8.27;6.30;;;;;;;;;;5030614;28;20091;-73
2021/10/03 12:26:45;;;;;;;6.53;5.85;;;;;;;;;;5033141;28;20064;-73
2021/10/03 12:29:13;;;;;;;6.65;5.25;;;;;;;;;;5033287;28;20025;-73
2021/10/03 12:31:58;;;;;;;7.63;6.22;;;;;;;;;;5030094;28;20086;-73
2021/10/03 12:34:26;;;;;;;6.90;5.88;;;;;;;;;;5029407;28;20436;-73
2021/10/03 12:36:55;;;;;;;7.07;5.25;;;;;;;;;;5033578;28;20044;-73
2021/10/03 12:39:35;;;;;;;6.60;5.80;;;;;;;;;;5031258;28;20020;-73
2021/10/03 12:42:06;;;;;;;8.25;6.45;;;;;;;;;;5030139;28;20486;-73
2021/10/03 12:44:33;;;;;;;7.22;6.03;;;;;;;;;;5032649;28;20025;-73
2021/10/03 12:47:00;;;;;;;7.22;6.38;;;;;;;;;;5030405;28;20544;-73
2021/10/03 12:49:27;;;;;;;7.07;6.30;;;;;;;;;;5031149;28;20032;-74
2021/10/03 12:51:53;;;;;;;8.32;6.05;;;;;;;;;;5032827;28;20017;-74
2021/10/03 12:54:19;;;;;;;6.75;5.93;;;;;;;;;;5029704;28;20025;-73
2021/10/03 12:56:45;;;;;;;6.80;5.70;;;;;;;;;;5033246;28;20623;-74
2021/10/03 12:59:11;;;;;;;5.90;5.28;;;;;;;;;;5029559;28;20025;-73
2021/10/03 13:01:38;;;;;;;6.50;5.80;;;;;;;;;;5031651;28;20021;-73
2021/10/03 13:04:04;;;;;;;7.38;6.65;;;;;;;;;;5032501;28;20581;-74
2021/10/03 13:06:31;;;;;;;7.70;6.63;;;;;;;;;;5030728;28;20036;-73
2021/10/03 13:08:57;;;;;;;7.10;6.40;;;;;;;;;;5033587;28;20107;-74
2021/10/03 13:11:23;;;;;;;7.88;6.60;;;;;;;;;;5029151;28;20026;-73
2021/10/03 13:13:49;;;;;;;7.40;6.68;;;;;;;;;;5032259;28;20029;-74
2021/10/03 13:16:16;;;;;;;8.55;6.70;;;;;;;;;;5031147;28;20043;-73
2021/10/03 13:18:43;;;;;;;9.27;7.10;;;;;;;;;;5033542;28;20525;-74
2021/10/03 13:21:09;;;;;;;8.10;7.10;;;;;;;;;;5031789;28;20371;-73
2021/10/03 13:23:36;;;;;;;8.15;7.05;;;;;;;;;;5027624;28;20263;-73
2021/10/03 13:26:02;;;;;;;9.10;7.53;;;;;;;;;;5022234;28;20063;-73
2021/10/03 13:28:29;;;;;;;9.20;7.60;;;;;;;;;;5029899;28;20053;-74
2021/10/03 13:30:56;;;;;;;8.00;7.22;;;;;;;;;;5028097;28;20052;-74
2021/10/03 13:33:23;;;;;;;8.55;7.07;;;;;;;;;;5026966;28;20029;-74
2021/10/03 13:35:49;;;;;;;7.60;6.80;;;;;;;;;;5028954;28;20582;-74
2021/10/03 13:38:15;;;;;;;7.82;6.82;;;;;;;;;;5025349;28;20102;-74
2021/10/03 13:40:42;;;;;;;8.43;6.50;;;;;;;;;;5029176;28;20036;-75
2021/10/03 13:43:09;;;;;;;7.85;6.53;;;;;;;;;;5030880;28;20029;-73
2021/10/03 13:45:36;;;;;;;7.88;6.18;;;;;;;;;;5026290;28;20030;-74
2021/10/03 13:48:02;;;;;;;7.63;6.50;;;;;;;;;;5027406;28;20047;-74
2021/10/03 13:50:28;;;;;;;6.53;5.65;;;;;;;;;;5027815;28;20040;-74
2021/10/03 13:52:55;;;;;;;8.55;5.95;;;;;;;;;;5026350;28;20045;-75
2021/10/03 13:55:21;;;;;;;8.90;6.82;;;;;;;;;;5028838;28;20025;-74
2021/10/03 13:57:47;;;;;;;8.50;6.55;;;;;;;;;;5033073;28;20025;-72
2021/10/03 14:00:14;;;;;;;6.65;6.00;;;;;;;;;;5010901;28;20113;-74
2021/10/03 14:02:41;;;;;;;7.50;6.50;;;;;;;;;;5022954;28;20021;-74
2021/10/03 14:05:08;;;;;;;8.27;7.40;;;;;;;;;;5030503;28;20082;-74
2021/10/03 14:07:35;;;;;;;11.85;7.20;;;;;;;;;;5035340;28;20060;-75
2021/10/03 14:10:02;;;;;;;7.68;6.90;;;;;;;;;;5037939;28;20491;-75
2021/10/03 14:12:28;;;;;;;7.50;6.57;;;;;;;;;;5031357;28;20505;-74
2021/10/03 14:14:55;;;;;;;10.75;7.88;;;;;;;;;;5030692;28;20026;-74
2021/10/03 14:17:22;;;;;;;14.98;7.93;;;;;;;;;;5026404;28;20442;-74
2021/10/03 14:19:48;;;;;;;8.20;6.78;;;;;;;;;;5032020;28;20083;-74
2021/10/03 14:22:14;;;;;;;8.32;6.70;;;;;;;;;;5031364;28;20613;-74
2021/10/03 14:24:42;;;;;;;8.75;7.13;;;;;;;;;;5030416;28;20159;-74
2021/10/03 14:27:08;;;;;;;9.00;7.00;;;;;;;;;;5025830;28;20049;-75
2021/10/03 14:29:34;;;;;;;8.02;7.22;;;;;;;;;;5016124;28;20083;-75
2021/10/03 14:32:01;;;;;;;7.57;6.85;;;;;;;;;;5026927;28;20061;-75
2021/10/03 14:34:27;;;;;;;9.73;7.22;;;;;;;;;;5025936;28;20029;-74
2021/10/03 14:36:53;;;;;;;10.23;8.00;;;;;;;;;;5029236;28;20025;-75
2021/10/03 14:39:19;;;;;;;8.00;7.20;;;;;;;;;;5032084;28;20031;-75
2021/10/03 14:41:45;;;;;;;7.78;6.97;;;;;;;;;;5023342;28;20041;-75
2021/10/03 14:44:12;;;;;;;10.98;7.40;;;;;;;;;;5026634;28;20029;-75